createdAt,value
2022-09-06T00:01:22.214Z,17.82
2022-09-06T00:03:49.607Z,17.65
2022-09-06T00:06:18.434Z,17.61
2022-09-06T00:08:46.383Z,17.54
2022-09-06T00:11:14.648Z,17.53
2022-09-06T00:13:41.391Z,17.48
2022-09-06T00:16:10.976Z,17.48
2022-09-06T00:18:37.904Z,17.39
2022-09-06T00:21:14.475Z,17.44
2022-09-06T00:23:41.061Z,17.51
2022-09-06T00:26:07.594Z,17.52
2022-09-06T00:28:34.142Z,17.48
2022-09-06T00:31:14.757Z,17.42
2022-09-06T00:33:41.572Z,17.43
2022-09-06T00:36:09.000Z,17.37
2022-09-06T00:38:36.118Z,17.42
2022-09-06T00:41:03.285Z,17.43
2022-09-06T00:43:29.952Z,17.39
2022-09-06T00:45:57.286Z,17.37
2022-09-06T00:48:24.504Z,17.37
2022-09-06T00:50:55.799Z,17.41
2022-09-06T00:53:22.716Z,17.43
2022-09-06T00:55:49.702Z,17.42
2022-09-06T00:58:16.347Z,17.34
2022-09-06T01:00:44.606Z,17.32
2022-09-06T01:03:12.591Z,17.36
2022-09-06T01:06:06.317Z,17.29
2022-09-06T01:08:52.399Z,17.29
2022-09-06T01:11:54.486Z,17.34
2022-09-06T01:14:38.141Z,17.45
2022-09-06T01:17:33.030Z,17.56
2022-09-06T01:20:09.623Z,17.53
2022-09-06T01:22:51.361Z,17.36
2022-09-06T01:25:45.199Z,17.22
2022-09-06T01:28:23.941Z,17.26
2022-09-06T01:31:22.473Z,17.28
2022-09-06T01:33:48.952Z,17.24
2022-09-06T01:36:20.455Z,17.25
2022-09-06T01:38:46.937Z,17.22
2022-09-06T01:41:13.497Z,17.21
2022-09-06T01:43:45.989Z,17.24
2022-09-06T01:46:12.513Z,17.23
2022-09-06T01:48:47.718Z,17.19
2022-09-06T01:51:31.384Z,17.14
2022-09-06T01:54:43.177Z,16.98
2022-09-06T01:57:22.658Z,16.90
2022-09-06T02:00:10.686Z,16.90
2022-09-06T02:02:53.561Z,16.84
2022-09-06T02:05:36.036Z,16.87
2022-09-06T02:08:11.346Z,16.85
2022-09-06T02:10:54.977Z,16.88
2022-09-06T02:13:25.526Z,16.89
2022-09-06T02:16:01.179Z,16.88
2022-09-06T02:18:34.095Z,16.94
2022-09-06T02:21:03.020Z,16.89
2022-09-06T02:23:35.762Z,16.95
2022-09-06T02:26:17.553Z,17.01
2022-09-06T02:28:44.323Z,17.04
2022-09-06T02:31:18.267Z,16.95
2022-09-06T02:33:46.419Z,16.82
2022-09-06T02:36:15.788Z,16.89
2022-09-06T02:38:44.474Z,16.95
2022-09-06T02:41:12.204Z,16.84
2022-09-06T02:43:38.988Z,16.85
2022-09-06T02:46:05.731Z,16.80
2022-09-06T02:48:32.257Z,16.75
2022-09-06T02:51:03.130Z,16.62
2022-09-06T02:53:29.654Z,16.45
2022-09-06T02:55:56.963Z,16.39
2022-09-06T02:58:24.434Z,16.39
2022-09-06T03:00:54.462Z,16.49
2022-09-06T03:03:22.286Z,16.58
2022-09-06T03:05:52.703Z,16.63
2022-09-06T03:08:20.740Z,16.57
2022-09-06T03:10:56.154Z,16.60
2022-09-06T03:13:24.232Z,16.55
2022-09-06T03:15:56.506Z,16.56
2022-09-06T03:18:28.039Z,16.53
2022-09-06T03:20:55.899Z,16.55
2022-09-06T03:23:25.182Z,16.55
2022-09-06T03:25:52.135Z,16.57
2022-09-06T03:28:19.862Z,16.57
2022-09-06T03:30:48.596Z,16.54
2022-09-06T03:33:15.588Z,16.61
2022-09-06T03:35:53.985Z,16.62
2022-09-06T03:38:21.467Z,16.61
2022-09-06T03:40:49.023Z,16.62
2022-09-06T03:43:17.293Z,16.65
2022-09-06T03:46:02.657Z,16.62
2022-09-06T03:48:30.054Z,16.55
2022-09-06T03:50:58.671Z,16.46
2022-09-06T03:53:27.483Z,16.45
2022-09-06T03:55:57.502Z,16.55
2022-09-06T03:58:25.390Z,16.52
2022-09-06T04:01:07.674Z,16.47
2022-09-06T04:03:35.254Z,16.46
2022-09-06T04:06:02.487Z,16.36
2022-09-06T04:08:29.679Z,16.41
2022-09-06T04:10:57.677Z,16.47
2022-09-06T04:13:25.102Z,16.47
2022-09-06T04:15:52.658Z,16.43
2022-09-06T04:18:20.269Z,16.46
2022-09-06T04:20:51.529Z,16.54
2022-09-06T04:23:18.904Z,16.62
2022-09-06T04:25:50.311Z,16.61
2022-09-06T04:28:18.390Z,16.59
2022-09-06T04:31:04.368Z,16.58
2022-09-06T04:33:33.286Z,16.45
2022-09-06T04:36:02.488Z,16.48
2022-09-06T04:38:30.739Z,16.55
2022-09-06T04:40:57.334Z,16.45
2022-09-06T04:43:24.483Z,16.34
2022-09-06T04:45:51.415Z,16.24
2022-09-06T04:48:18.241Z,16.23
2022-09-06T04:50:44.777Z,16.27
2022-09-06T04:53:11.470Z,16.31
2022-09-06T04:55:38.346Z,16.31
2022-09-06T04:58:05.851Z,16.21
2022-09-06T05:00:34.349Z,16.17
2022-09-06T05:03:00.934Z,16.21
2022-09-06T05:05:27.487Z,16.24
2022-09-06T05:07:54.610Z,16.30
2022-09-06T05:10:22.565Z,16.28
2022-09-06T05:12:49.816Z,16.29
2022-09-06T05:15:17.535Z,16.23
2022-09-06T05:17:44.115Z,16.24
2022-09-06T05:20:11.642Z,16.20
2022-09-06T05:22:39.091Z,16.20
2022-09-06T05:25:06.352Z,16.13
2022-09-06T05:27:32.989Z,16.17
2022-09-06T05:29:59.533Z,16.20
2022-09-06T05:32:26.191Z,16.23
2022-09-06T05:34:53.236Z,16.21
2022-09-06T05:37:19.744Z,16.22
2022-09-06T05:39:46.373Z,16.27
2022-09-06T05:42:17.154Z,16.29
2022-09-06T05:44:45.624Z,16.21
2022-09-06T05:47:12.102Z,16.21
2022-09-06T05:49:38.633Z,16.19
2022-09-06T05:52:05.265Z,16.15
2022-09-06T05:54:32.015Z,16.25
2022-09-06T05:56:58.579Z,16.30
2022-09-06T05:59:25.313Z,16.29
2022-09-06T06:01:53.596Z,16.26
2022-09-06T06:04:22.354Z,16.27
2022-09-06T06:06:49.411Z,16.32
2022-09-06T06:09:16.611Z,16.32
2022-09-06T06:11:43.433Z,16.31
2022-09-06T06:14:10.244Z,16.31
2022-09-06T06:16:37.091Z,16.31
2022-09-06T06:19:03.717Z,16.39
2022-09-06T06:21:32.051Z,16.38
2022-09-06T06:24:03.729Z,16.37
2022-09-06T06:26:33.286Z,16.45
2022-09-06T06:29:02.425Z,16.45
2022-09-06T06:31:30.890Z,16.43
2022-09-06T06:33:58.266Z,16.49
2022-09-06T06:36:27.218Z,16.67
2022-09-06T06:38:55.366Z,16.69
2022-09-06T06:41:24.384Z,16.65
2022-09-06T06:43:55.215Z,16.70
2022-09-06T06:46:24.320Z,16.82
2022-09-06T06:48:54.645Z,16.92
2022-09-06T06:51:32.184Z,16.99
2022-09-06T06:53:58.842Z,16.94
2022-09-06T06:56:28.381Z,16.98
2022-09-06T06:59:00.436Z,16.94
2022-09-06T07:01:29.214Z,16.96
2022-09-06T07:03:56.064Z,16.90
2022-09-06T07:09:09.798Z,17.07
2022-09-06T07:11:36.306Z,17.09
2022-09-06T07:14:02.815Z,17.00
2022-09-06T07:16:30.045Z,17.01
2022-09-06T07:18:56.654Z,16.97
2022-09-06T07:21:42.375Z,16.99
2022-09-06T07:24:09.613Z,17.06
2022-09-06T07:26:38.233Z,17.07
2022-09-06T07:29:06.031Z,17.12
2022-09-06T07:34:21.969Z,17.30
2022-09-06T07:36:48.646Z,17.29
2022-09-06T07:39:15.382Z,17.30
2022-09-06T07:41:43.245Z,17.31
2022-09-06T07:44:10.141Z,17.40
2022-09-06T07:46:36.776Z,17.53
2022-09-06T07:49:06.708Z,17.71
2022-09-06T07:51:33.387Z,17.88
2022-09-06T07:54:29.406Z,17.98
2022-09-06T07:56:47.378Z,18.16
2022-09-06T07:59:14.014Z,18.29
2022-09-06T08:01:41.082Z,18.42
2022-09-06T08:04:12.851Z,18.51
2022-09-06T08:09:27.451Z,18.30
2022-09-06T08:11:53.985Z,18.29
2022-09-06T08:14:20.655Z,18.46
2022-09-06T08:16:47.395Z,18.67
2022-09-06T08:19:14.411Z,18.68
2022-09-06T08:21:41.145Z,18.60
2022-09-06T08:24:12.506Z,18.57
2022-09-06T08:26:40.701Z,18.70
2022-09-06T08:29:09.068Z,18.96
2022-09-06T08:31:38.497Z,19.28
2022-09-06T08:34:05.348Z,19.43
2022-09-06T08:36:32.571Z,19.34
2022-09-06T08:39:04.595Z,19.27
2022-09-06T08:41:48.801Z,19.32
2022-09-06T08:47:20.507Z,19.35
2022-09-06T08:50:03.963Z,19.41
2022-09-06T08:52:49.756Z,19.81
2022-09-06T08:55:37.421Z,20.14
2022-09-06T08:58:28.142Z,20.25
2022-09-06T09:01:13.470Z,19.91
2022-09-06T09:03:43.265Z,20.37
2022-09-06T09:06:10.581Z,20.05
2022-09-06T09:09:06.235Z,19.73
2022-09-06T09:11:35.895Z,19.74
2022-09-06T09:14:17.146Z,19.78
2022-09-06T09:16:44.255Z,19.94
2022-09-06T09:19:10.877Z,20.11
2022-09-06T09:21:40.501Z,20.22
2022-09-06T09:24:12.525Z,20.45
2022-09-06T09:26:53.552Z,20.73
2022-09-06T09:29:25.309Z,20.81
2022-09-06T09:31:55.155Z,20.91
2022-09-06T09:34:36.845Z,21.20
2022-09-06T09:40:27.951Z,21.20
2022-09-06T09:43:09.083Z,21.14
2022-09-06T09:45:35.611Z,21.41
2022-09-06T09:48:21.261Z,21.46
2022-09-06T09:50:48.281Z,21.58
2022-09-06T09:53:18.861Z,21.68
2022-09-06T09:55:46.907Z,21.81
2022-09-06T09:58:33.362Z,21.96
2022-09-06T10:01:21.632Z,22.11
2022-09-06T10:09:50.499Z,22.41
2022-09-06T10:12:28.526Z,22.56
2022-09-06T10:14:55.821Z,22.40
2022-09-06T10:17:33.573Z,22.46
2022-09-06T10:20:12.670Z,22.64
2022-09-06T10:23:05.141Z,22.86
2022-09-06T10:25:34.416Z,23.02
2022-09-06T10:28:19.171Z,23.14
2022-09-06T10:31:24.525Z,23.13
2022-09-06T10:33:56.883Z,23.09
2022-09-06T10:36:52.464Z,23.14
2022-09-06T10:39:33.652Z,23.09
2022-09-06T10:42:19.872Z,23.19
2022-09-06T10:45:14.048Z,23.09
2022-09-06T10:47:59.452Z,22.97
2022-09-06T10:50:41.450Z,22.96
2022-09-06T10:53:16.238Z,23.44
2022-09-06T10:55:47.963Z,23.62
2022-09-06T10:58:25.059Z,23.80
2022-09-06T11:00:55.519Z,23.96
2022-09-06T11:06:28.862Z,23.80
2022-09-06T11:08:58.490Z,23.62
2022-09-06T11:11:40.409Z,23.47
2022-09-06T11:14:10.563Z,23.61
2022-09-06T11:16:45.808Z,23.60
2022-09-06T11:19:21.603Z,23.27
2022-09-06T11:22:11.253Z,23.36
2022-09-06T11:25:02.918Z,23.77
2022-09-06T11:27:42.015Z,23.84
2022-09-06T11:30:15.530Z,24.04
2022-09-06T11:32:50.525Z,24.21
2022-09-06T11:35:29.337Z,24.14
2022-09-06T11:38:14.267Z,24.22
2022-09-06T11:40:43.848Z,24.23
2022-09-06T11:43:17.884Z,24.00
2022-09-06T11:45:44.807Z,24.02
2022-09-06T11:48:23.362Z,24.10
2022-09-06T11:50:59.098Z,24.29
2022-09-06T11:53:35.988Z,24.16
2022-09-06T11:56:02.457Z,24.34
2022-09-06T11:58:36.894Z,24.49
2022-09-06T12:01:12.542Z,24.58
2022-09-06T12:06:33.553Z,24.50
2022-09-06T12:09:00.055Z,24.44
2022-09-06T12:11:30.495Z,24.32
2022-09-06T12:14:27.844Z,24.27
2022-09-06T12:16:57.538Z,24.37
2022-09-06T12:19:44.602Z,24.49
2022-09-06T12:22:29.356Z,24.66
2022-09-06T12:24:59.747Z,24.56
2022-09-06T12:27:39.180Z,24.58
2022-09-06T12:30:12.105Z,24.48
2022-09-06T12:32:48.423Z,24.71
2022-09-06T12:38:14.415Z,24.81
2022-09-06T12:40:45.761Z,24.73
2022-09-06T12:43:15.116Z,24.62
2022-09-06T12:45:50.657Z,24.64
2022-09-06T12:48:28.023Z,24.45
2022-09-06T12:51:09.596Z,24.53
2022-09-06T12:53:36.146Z,24.64
2022-09-06T12:56:08.217Z,24.69
2022-09-06T12:58:35.934Z,24.63
2022-09-06T13:01:27.923Z,24.64
2022-09-06T13:03:58.257Z,24.71
2022-09-06T13:06:27.167Z,24.56
2022-09-06T13:08:56.925Z,24.51
2022-09-06T13:11:28.391Z,24.41
2022-09-06T13:13:55.670Z,24.41
2022-09-06T13:16:28.339Z,24.52
2022-09-06T13:18:55.107Z,24.57
2022-09-06T13:21:32.973Z,24.46
2022-09-06T13:23:59.726Z,24.55
2022-09-06T13:26:40.265Z,24.60
2022-09-06T13:29:29.329Z,24.69
2022-09-06T13:31:58.176Z,24.75
2022-09-06T13:34:27.210Z,24.74
2022-09-06T13:37:00.320Z,24.62
2022-09-06T13:39:35.481Z,24.62
2022-09-06T13:42:07.822Z,24.60
2022-09-06T13:44:39.286Z,24.66
2022-09-06T13:47:06.358Z,24.67
2022-09-06T13:49:33.905Z,24.68
2022-09-06T13:52:02.440Z,24.64
2022-09-06T13:54:30.426Z,24.61
2022-09-06T13:56:57.145Z,24.58
2022-09-06T13:59:24.709Z,24.55
2022-09-06T14:02:02.166Z,24.53
2022-09-06T14:04:29.081Z,24.62
2022-09-06T14:06:55.630Z,24.61
2022-09-06T14:09:22.148Z,24.55
2022-09-06T14:11:48.669Z,24.51
2022-09-06T14:14:16.717Z,24.42
2022-09-06T14:16:43.819Z,24.42
2022-09-06T14:19:10.591Z,24.43
2022-09-06T14:21:37.172Z,24.49
2022-09-06T14:24:04.822Z,24.59
2022-09-06T14:26:31.851Z,24.52
2022-09-06T14:28:58.703Z,24.50
2022-09-06T14:31:28.017Z,24.53
2022-09-06T14:33:56.404Z,24.58
2022-09-06T14:36:26.185Z,24.55
2022-09-06T14:38:53.685Z,24.62
2022-09-06T14:41:21.009Z,24.64
2022-09-06T14:43:53.483Z,24.71
2022-09-06T14:46:21.994Z,24.66
2022-09-06T14:48:49.540Z,24.60
2022-09-06T14:51:21.883Z,24.59
2022-09-06T14:53:51.987Z,24.60
2022-09-06T14:56:19.657Z,24.61
2022-09-06T14:58:46.668Z,24.67
2022-09-06T15:01:19.099Z,24.59
2022-09-06T15:03:51.763Z,24.50
2022-09-06T15:06:21.461Z,24.52
2022-09-06T15:08:48.685Z,24.57
2022-09-06T15:11:27.399Z,24.65
2022-09-06T15:13:53.962Z,24.61
2022-09-06T15:16:21.366Z,24.61
2022-09-06T15:18:48.343Z,24.58
2022-09-06T15:21:17.084Z,24.62
2022-09-06T15:23:43.928Z,24.57
2022-09-06T15:26:12.176Z,24.54
2022-09-06T15:28:40.269Z,24.52
2022-09-06T15:31:08.317Z,24.44
2022-09-06T15:33:36.537Z,24.43
2022-09-06T15:36:08.222Z,24.45
2022-09-06T15:38:42.009Z,24.40
2022-09-06T15:41:24.321Z,24.39
2022-09-06T15:43:53.720Z,24.39
2022-09-06T15:46:40.389Z,24.33
2022-09-06T15:49:09.159Z,24.45
2022-09-06T15:51:37.892Z,24.49
2022-09-06T15:54:05.305Z,24.47
2022-09-06T15:56:32.338Z,24.38
2022-09-06T15:58:58.928Z,24.42
2022-09-06T16:01:26.636Z,24.36
2022-09-06T16:03:55.824Z,24.23
2022-09-06T16:09:01.902Z,24.23
2022-09-06T16:11:30.093Z,24.26
2022-09-06T16:13:56.714Z,24.17
2022-09-06T16:16:23.530Z,24.16
2022-09-06T16:18:52.193Z,24.10
2022-09-06T16:21:21.580Z,24.13
2022-09-06T16:23:54.678Z,24.03
2022-09-06T16:26:22.929Z,24.05
2022-09-06T16:28:51.258Z,23.90
2022-09-06T16:31:19.026Z,23.97
2022-09-06T16:33:45.907Z,23.98
2022-09-06T16:36:14.266Z,23.94
2022-09-06T16:38:41.928Z,23.94
2022-09-06T16:41:10.025Z,23.92
2022-09-06T16:43:36.823Z,23.81
2022-09-06T16:46:04.415Z,23.80
2022-09-06T16:48:31.618Z,23.80
2022-09-06T16:50:58.453Z,23.87
2022-09-06T16:53:25.190Z,23.67
2022-09-06T16:55:51.720Z,23.67
2022-09-06T16:58:18.323Z,23.61
2022-09-06T17:00:45.524Z,23.66
2022-09-06T17:03:14.323Z,23.63
2022-09-06T17:05:41.257Z,23.53
2022-09-06T17:08:08.372Z,23.45
2022-09-06T17:10:38.399Z,23.44
2022-09-06T17:13:04.933Z,23.46
2022-09-06T17:15:51.430Z,23.37
2022-09-06T17:18:17.994Z,23.19
2022-09-06T17:20:55.238Z,23.09
2022-09-06T17:23:21.785Z,23.01
2022-09-06T17:25:48.519Z,22.95
2022-09-06T17:28:15.091Z,22.88
2022-09-06T17:30:41.645Z,22.81
2022-09-06T17:33:08.704Z,22.81
2022-09-06T17:35:35.322Z,22.72
2022-09-06T17:38:02.010Z,22.63
2022-09-06T17:40:28.768Z,22.53
2022-09-06T17:42:55.590Z,22.44
2022-09-06T17:45:22.273Z,22.42
2022-09-06T17:47:49.017Z,22.40
2022-09-06T17:50:15.802Z,22.32
2022-09-06T17:52:42.568Z,22.27
2022-09-06T17:55:09.402Z,22.18
2022-09-06T17:57:36.099Z,22.11
2022-09-06T18:00:03.352Z,22.08
2022-09-06T18:02:29.877Z,22.16
2022-09-06T18:04:56.487Z,22.20
2022-09-06T18:07:23.095Z,22.23
2022-09-06T18:09:49.619Z,22.15
2022-09-06T18:12:17.459Z,22.05
2022-09-06T18:14:43.947Z,21.99
2022-09-06T18:17:10.723Z,21.89
2022-09-06T18:19:38.228Z,21.82
2022-09-06T18:22:04.908Z,21.74
2022-09-06T18:24:31.976Z,21.73
2022-09-06T18:26:58.669Z,21.68
2022-09-06T18:29:25.283Z,21.52
2022-09-06T18:31:54.038Z,21.52
2022-09-06T18:34:21.580Z,21.36
2022-09-06T18:36:48.233Z,21.30
2022-09-06T18:39:14.790Z,21.22
2022-09-06T18:41:59.834Z,21.21
2022-09-06T18:44:32.365Z,21.14
2022-09-06T18:47:01.441Z,21.09
2022-09-06T18:49:28.315Z,21.06
2022-09-06T18:51:55.263Z,21.01
2022-09-06T18:54:21.891Z,20.96
2022-09-06T18:56:50.020Z,20.89
2022-09-06T18:59:17.131Z,20.88
2022-09-06T19:01:44.339Z,20.81
2022-09-06T19:04:11.849Z,20.76
2022-09-06T19:06:40.431Z,20.68
2022-09-06T19:09:09.929Z,20.70
2022-09-06T19:11:36.819Z,20.70
2022-09-06T19:14:04.661Z,20.67
2022-09-06T19:16:31.940Z,20.55
2022-09-06T19:19:07.561Z,20.49
2022-09-06T19:21:37.924Z,20.37
2022-09-06T19:24:07.392Z,20.38
2022-09-06T19:26:37.673Z,20.30
2022-09-06T19:29:07.729Z,20.23
2022-09-06T19:31:36.021Z,20.29
2022-09-06T19:34:02.973Z,20.30
2022-09-06T19:36:30.107Z,20.22
2022-09-06T19:39:03.413Z,20.22
2022-09-06T19:41:33.229Z,20.09
2022-09-06T19:44:00.205Z,20.17
2022-09-06T19:46:27.642Z,20.03
2022-09-06T19:48:56.105Z,20.04
2022-09-06T19:51:24.268Z,20.12
2022-09-06T19:53:59.805Z,19.94
2022-09-06T19:56:33.714Z,19.79
2022-09-06T19:59:03.148Z,19.75
2022-09-06T20:01:31.576Z,19.72
2022-09-06T20:03:59.876Z,19.70
2022-09-06T20:06:27.353Z,19.77
2022-09-06T20:08:57.191Z,19.64
2022-09-06T20:11:26.424Z,19.64
2022-09-06T20:13:53.019Z,19.68
2022-09-06T20:16:21.218Z,19.60
2022-09-06T20:18:48.515Z,19.60
2022-09-06T20:21:17.798Z,19.63
2022-09-06T20:23:49.417Z,19.52
2022-09-06T20:26:16.907Z,19.30
2022-09-06T20:28:44.145Z,19.21
2022-09-06T20:31:14.096Z,19.09
2022-09-06T20:33:40.748Z,19.12
2022-09-06T20:36:10.014Z,19.01
2022-09-06T20:38:38.994Z,18.97
2022-09-06T20:41:08.028Z,18.79
2022-09-06T20:43:39.520Z,18.75
2022-09-06T20:46:15.244Z,18.96
2022-09-06T20:48:44.905Z,18.98
2022-09-06T20:51:19.925Z,18.84
2022-09-06T20:53:48.604Z,18.84
2022-09-06T20:56:18.152Z,18.86
2022-09-06T20:58:52.900Z,18.84
2022-09-06T21:01:23.348Z,18.95
2022-09-06T21:03:58.308Z,19.05
2022-09-06T21:06:26.652Z,19.19
2022-09-06T21:08:53.282Z,18.99
2022-09-06T21:11:20.146Z,18.75
2022-09-06T21:13:56.575Z,18.74
2022-09-06T21:16:25.633Z,18.65
2022-09-06T21:18:57.227Z,18.58
2022-09-06T21:21:25.504Z,18.76
2022-09-06T21:23:52.799Z,18.76
2022-09-06T21:26:19.490Z,18.58
2022-09-06T21:28:47.708Z,18.63
2022-09-06T21:31:17.169Z,18.63
2022-09-06T21:33:46.461Z,18.55
2022-09-06T21:36:15.700Z,18.47
2022-09-06T21:38:45.453Z,18.57
2022-09-06T21:41:14.243Z,18.66
2022-09-06T21:43:41.299Z,18.64
2022-09-06T21:46:14.487Z,18.52
2022-09-06T21:48:43.812Z,18.52
2022-09-06T21:51:15.254Z,18.66
2022-09-06T21:53:43.570Z,18.83
2022-09-06T21:56:10.756Z,18.55
2022-09-06T21:58:37.997Z,18.35
2022-09-06T22:01:05.571Z,18.33
2022-09-06T22:03:35.315Z,18.50
2022-09-06T22:06:12.901Z,18.50
2022-09-06T22:08:41.774Z,18.21
2022-09-06T22:11:29.609Z,18.20
2022-09-06T22:14:05.745Z,18.37
2022-09-06T22:16:35.402Z,18.19
2022-09-06T22:19:04.753Z,18.06
2022-09-06T22:21:32.359Z,18.10
2022-09-06T22:24:05.296Z,17.94
2022-09-06T22:26:34.927Z,17.94
2022-09-06T22:29:06.762Z,18.03
2022-09-06T22:31:33.889Z,18.10
2022-09-06T22:34:00.930Z,17.89
2022-09-06T22:36:28.176Z,17.88
2022-09-06T22:38:58.570Z,18.04
2022-09-06T22:41:27.222Z,17.93
2022-09-06T22:43:54.105Z,17.84
2022-09-06T22:46:20.725Z,17.94
2022-09-06T22:48:47.349Z,18.04
2022-09-06T22:51:13.868Z,18.01
2022-09-06T22:53:40.555Z,18.10
2022-09-06T22:56:07.227Z,18.08
2022-09-06T22:58:35.343Z,17.98
2022-09-06T23:01:13.426Z,17.87
2022-09-06T23:03:41.973Z,17.94
2022-09-06T23:06:08.821Z,17.94
2022-09-06T23:08:37.987Z,17.81
2022-09-06T23:11:13.342Z,17.61
2022-09-06T23:13:43.752Z,17.54
2022-09-06T23:16:17.263Z,17.57
2022-09-06T23:18:44.697Z,17.61
2022-09-06T23:21:14.118Z,17.58
2022-09-06T23:23:41.620Z,17.58
2022-09-06T23:26:14.115Z,17.74
2022-09-06T23:28:41.284Z,17.85
2022-09-06T23:31:11.036Z,17.79
2022-09-06T23:33:37.953Z,17.82
2022-09-06T23:36:06.339Z,17.62
2022-09-06T23:38:34.246Z,17.44
2022-09-06T23:41:01.490Z,17.47
2022-09-06T23:43:28.792Z,17.60
2022-09-06T23:45:55.779Z,17.56
2022-09-06T23:48:22.348Z,17.27
2022-09-06T23:50:49.206Z,17.18
2022-09-06T23:53:17.733Z,17.27
2022-09-06T23:55:45.078Z,17.39
2022-09-06T23:58:12.094Z,17.59
